M I D A S
Marine Information and Data Acquisition System
Tripno 1984 of the Zeeleeuw from 2010-11-08 07:17:38 to 2010-11-08 14:02:37
Back to CruiseResearch ActivitiesStationsMapUnderway DataData graphs

EquipmentUnitsComment
TimeDGPSUTC
LatitudeDGPSDM.mWGS84
LongitudeDGPSDM.mWGS84
HeadingGyrodeg 
SOGDGPSknotsSpeed over ground
COGDGPSdegCourse over ground
DepthEcho soundermeters200 kHz
Missing or incorrect values are displayed as -999
Navigation data collected by the RV Zeeleeuw from 2010-11-08 07:08:11 to 2010-11-08 14:30:11
                                                                                    Next 1000 lines
Time Latitude Longitude Heading SOG COG Depth
2010-11-08 07:08:20 51°13.664 2°55.959 121.8 0.1 74 6.4
2010-11-08 07:08:25 51°13.663 2°55.959 121.8 0.3 80 6.4
2010-11-08 07:08:30 51°13.662 2°55.958 121.8 0.1 44 6.5
2010-11-08 07:08:35 51°13.663 2°55.958 121.8 0.2 339 6.4
2010-11-08 07:08:40 51°13.663 2°55.959 121.8 0.1 271 6.4
2010-11-08 07:08:44 51°13.663 2°55.959 121.8 0.2 120 6.4
2010-11-08 07:08:49 51°13.663 2°55.959 121.8 0.1 210 6.4
2010-11-08 07:08:54 51°13.663 2°55.958 121.8 0.1 295 6.4
2010-11-08 07:08:59 51°13.664 2°55.958 121.8 0.2 308 6.4
2010-11-08 07:09:04 51°13.664 2°55.958 121.8 0.1 314 6.4
2010-11-08 07:09:08 51°13.663 2°55.958 121.8 0.1 319 6.4
2010-11-08 07:09:14 51°13.663 2°55.959 121.8 -999 111 6.4
2010-11-08 07:09:19 51°13.663 2°55.959 121.8 0.1 327 6.4
2010-11-08 07:09:24 51°13.663 2°55.959 121.8 -999 219 6.4
2010-11-08 07:09:28 51°13.663 2°55.959 121.8 -999 275 6.4
2010-11-08 07:09:33 51°13.664 2°55.959 121.8 0.1 338 6.4
2010-11-08 07:09:38 51°13.664 2°55.959 121.8 0.1 119 6.4
2010-11-08 07:09:43 51°13.664 2°55.959 121.8 -999 93 6.4
2010-11-08 07:09:48 51°13.664 2°55.959 121.8 0.1 6 6.4
2010-11-08 07:09:52 51°13.664 2°55.959 121.8 0.1 346 6.4
2010-11-08 07:09:57 51°13.664 2°55.959 121.8 0.1 20 6.4
2010-11-08 07:10:03 51°13.664 2°55.959 121.8 0.1 358 6.4
2010-11-08 07:10:08 51°13.664 2°55.959 121.8 0.2 329 6.4
2010-11-08 07:10:12 51°13.664 2°55.959 121.8 0.1 321 6.4
2010-11-08 07:10:17 51°13.664 2°55.959 121.8 -999 73 6.4
2010-11-08 07:10:22 51°13.664 2°55.959 121.8 -999 253 6.4
2010-11-08 07:10:27 51°13.664 2°55.959 121.8 0.1 246 6.4
2010-11-08 07:10:32 51°13.664 2°55.959 121.8 0.1 267 6.4
2010-11-08 07:10:36 51°13.664 2°55.959 121.8 0.1 44 6.4
2010-11-08 07:10:41 51°13.664 2°55.959 121.8 -999 56 6.4
2010-11-08 07:10:48 51°13.664 2°55.959 121.8 -999 123 6.4
2010-11-08 07:10:53 51°13.664 2°55.959 121.8 -999 117 6.4
2010-11-08 07:10:57 51°13.664 2°55.959 121.8 -999 105 6.4
2010-11-08 07:11:02 51°13.664 2°55.959 121.8 -999 137 6.4
2010-11-08 07:11:08 51°13.664 2°55.959 121.8 0.1 194 6.4
2010-11-08 07:11:13 51°13.664 2°55.959 121.8 -999 190 6.4
2010-11-08 07:11:17 51°13.664 2°55.959 121.8 -999 147 6.4
2010-11-08 07:11:22 51°13.663 2°55.959 121.8 -999 233 6.4
2010-11-08 07:11:28 51°13.664 2°55.959 121.8 -999 34 6.4
2010-11-08 07:11:33 51°13.664 2°55.959 121.8 0.1 77 6.4
2010-11-08 07:11:37 51°13.664 2°55.959 121.8 -999 39 6.4
2010-11-08 07:11:43 51°13.664 2°55.959 121.8 -999 263 6.4
2010-11-08 07:11:47 51°13.664 2°55.958 121.8 -999 247 6.4
2010-11-08 07:11:52 51°13.664 2°55.959 121.8 -999 1 6.4
2010-11-08 07:11:57 51°13.664 2°55.959 121.8 -999 1 6.4
2010-11-08 07:12:02 51°13.664 2°55.959 121.8 -999 26 6.4
2010-11-08 07:12:07 51°13.664 2°55.958 121.8 -999 228 6.4
2010-11-08 07:12:12 51°13.664 2°55.959 121.8 -999 67 6.4
2010-11-08 07:12:17 51°13.664 2°55.959 121.8 0.1 162 6.4
2010-11-08 07:12:22 51°13.664 2°55.959 121.8 -999 140 6.4
2010-11-08 07:12:27 51°13.664 2°55.959 121.8 -999 181 6.4
2010-11-08 07:12:32 51°13.664 2°55.959 121.8 -999 89 6.4
2010-11-08 07:12:37 51°13.665 2°55.958 121.8 -999 336 6.4
2010-11-08 07:12:41 51°13.664 2°55.958 121.8 -999 197 6.4
2010-11-08 07:12:48 51°13.665 2°55.958 121.8 -999 296 6.4
2010-11-08 07:12:53 51°13.665 2°55.958 121.8 -999 308 6.4
2010-11-08 07:12:58 51°13.664 2°55.958 121.8 0.1 264 6.4
2010-11-08 07:13:02 51°13.664 2°55.958 121.8 -999 285 6.3
2010-11-08 07:13:08 51°13.664 2°55.959 121.8 0.1 151 6.4
2010-11-08 07:13:13 51°13.665 2°55.958 121.8 -999 26 6.4
2010-11-08 07:13:18 51°13.664 2°55.958 121.8 -999 248 6.3
2010-11-08 07:13:22 51°13.664 2°55.958 121.8 -999 166 6.3
2010-11-08 07:13:28 51°13.665 2°55.958 121.8 0.1 334 6.4
2010-11-08 07:13:33 51°13.665 2°55.959 121.8 -999 109 6.4
2010-11-08 07:13:38 51°13.665 2°55.959 121.8 -999 50 6.4
2010-11-08 07:13:42 51°13.664 2°55.958 121.8 -999 233 6.3
2010-11-08 07:13:48 51°13.664 2°55.959 121.8 -999 136 6.4
2010-11-08 07:13:53 51°13.664 2°55.959 121.8 0.1 115 6.4
2010-11-08 07:13:58 51°13.664 2°55.959 121.8 -999 53 6.3
2010-11-08 07:14:02 51°13.664 2°55.959 121.8 0.1 10 6.3
2010-11-08 07:14:08 51°13.664 2°55.959 121.8 -999 300 6.3
2010-11-08 07:14:13 51°13.664 2°55.959 121.8 -999 207 6.3
2010-11-08 07:14:18 51°13.664 2°55.959 121.8 -999 164 6.3
2010-11-08 07:14:22 51°13.664 2°55.959 121.8 -999 292 6.4
2010-11-08 07:14:27 51°13.664 2°55.958 121.8 -999 241 6.3
2010-11-08 07:14:33 51°13.664 2°55.959 121.8 -999 31 6.4
2010-11-08 07:14:38 51°13.664 2°55.959 121.8 -999 286 6.3
2010-11-08 07:14:42 51°13.664 2°55.959 121.8 -999 121 6.3
2010-11-08 07:14:48 51°13.664 2°55.959 121.8 -999 237 6.3
2010-11-08 07:14:53 51°13.664 2°55.959 121.8 -999 194 6.3
2010-11-08 07:14:58 51°13.664 2°55.959 121.8 -999 143 6.3
2010-11-08 07:15:02 51°13.664 2°55.959 121.8 -999 69 6.3
2010-11-08 07:15:08 51°13.664 2°55.959 121.8 -999 131 6.3
2010-11-08 07:15:13 51°13.664 2°55.959 121.8 0.1 50 6.4
2010-11-08 07:15:18 51°13.664 2°55.959 121.8 0.1 1 6.4
2010-11-08 07:15:22 51°13.664 2°55.959 121.8 -999 61 6.3
2010-11-08 07:15:27 51°13.664 2°55.959 121.8 0.1 28 6.3
2010-11-08 07:15:33 51°13.664 2°55.958 121.8 -999 296 6.3
2010-11-08 07:15:38 51°13.664 2°55.958 121.8 -999 228 -999
2010-11-08 07:15:42 51°13.664 2°55.959 121.8 -999 138 6.3
2010-11-08 07:15:48 51°13.664 2°55.959 121.8 -999 147 6.4
2010-11-08 07:15:53 51°13.664 2°55.958 121.8 -999 343 6.4
2010-11-08 07:15:58 51°13.664 2°55.959 121.8 0.1 170 6.4
2010-11-08 07:16:02 51°13.664 2°55.958 121.8 -999 250 6.4
2010-11-08 07:16:08 51°13.664 2°55.959 121.8 -999 295 6.4
2010-11-08 07:16:13 51°13.664 2°55.958 121.8 -999 341 6.4
2010-11-08 07:16:18 51°13.664 2°55.959 121.8 0.1 191 6.4
2010-11-08 07:16:22 51°13.664 2°55.959 121.8 -999 325 6.4
2010-11-08 07:16:27 51°13.664 2°55.959 121.8 -999 335 6.4
2010-11-08 07:16:33 51°13.664 2°55.959 121.8 0.1 234 6.4
2010-11-08 07:16:38 51°13.664 2°55.959 121.8 0.1 153 6.4
2010-11-08 07:16:43 51°13.664 2°55.959 121.8 0.1 104 6.4
2010-11-08 07:16:48 51°13.664 2°55.959 121.9 -999 347 6.4
2010-11-08 07:16:53 51°13.664 2°55.959 121.9 -999 181 6.3
2010-11-08 07:16:58 51°13.664 2°55.959 121.9 -999 97 -999
2010-11-08 07:17:03 51°13.664 2°55.959 121.9 0.1 26 6.4
2010-11-08 07:17:08 51°13.664 2°55.96 121.9 -999 11 6.4
2010-11-08 07:17:13 51°13.664 2°55.959 122 -999 306 6.4
2010-11-08 07:17:18 51°13.664 2°55.96 122 -999 56 6.4
2010-11-08 07:17:22 51°13.664 2°55.96 122 0.1 100 6.4
2010-11-08 07:17:28 51°13.664 2°55.96 122 0.1 128 6.3
2010-11-08 07:17:33 51°13.664 2°55.96 122.1 0.1 77 6.4
2010-11-08 07:17:38 51°13.664 2°55.96 122.3 -999 257 6.3
2010-11-08 07:17:43 51°13.664 2°55.96 122.4 -999 19 -999
2010-11-08 07:17:48 51°13.664 2°55.96 122.6 -999 21 6.3
2010-11-08 07:17:53 51°13.664 2°55.96 122.7 -999 359 6.3
2010-11-08 07:17:58 51°13.664 2°55.96 122.8 -999 70 6.3
2010-11-08 07:18:02 51°13.664 2°55.96 123 -999 250 6.3
2010-11-08 07:18:08 51°13.664 2°55.96 123.2 0.1 68 6.3
2010-11-08 07:18:13 51°13.664 2°55.96 123.4 -999 313 6.3
2010-11-08 07:18:18 51°13.663 2°55.961 123.4 0.1 166 -999
2010-11-08 07:18:22 51°13.663 2°55.961 123.4 0.1 153 6.3
2010-11-08 07:18:28 51°13.663 2°55.96 123.5 -999 339 6.3
2010-11-08 07:18:33 51°13.664 2°55.96 123.4 0.1 345 6.3
2010-11-08 07:18:38 51°13.663 2°55.96 123.3 0.1 257 6.4
2010-11-08 07:18:42 51°13.663 2°55.96 123.2 0.1 215 6.3
2010-11-08 07:18:48 51°13.663 2°55.96 123 0.1 355 6.3
2010-11-08 07:18:53 51°13.663 2°55.961 122.9 -999 323 6.3
2010-11-08 07:18:58 51°13.663 2°55.961 122.8 -999 11 6.3
2010-11-08 07:19:02 51°13.663 2°55.961 122.8 -999 348 6.3
2010-11-08 07:19:07 51°13.664 2°55.96 123.1 0.2 352 6.3
2010-11-08 07:19:12 51°13.664 2°55.96 123.4 0.1 349 6.3
2010-11-08 07:19:17 51°13.663 2°55.961 123.8 -999 93 6.3
2010-11-08 07:19:22 51°13.663 2°55.961 124.3 -999 87 6.3
2010-11-08 07:19:27 51°13.663 2°55.961 124.8 -999 301 6.3
2010-11-08 07:19:33 51°13.663 2°55.961 124.9 -999 277 6.3
2010-11-08 07:19:38 51°13.663 2°55.961 124.9 -999 175 6.3
2010-11-08 07:19:43 51°13.664 2°55.961 124.9 -999 69 6.3
2010-11-08 07:19:48 51°13.664 2°55.961 124.9 0.1 31 -999
2010-11-08 07:19:53 51°13.664 2°55.961 124.9 -999 293 6.4
2010-11-08 07:19:58 51°13.664 2°55.961 125 -999 347 6.3
2010-11-08 07:20:03 51°13.663 2°55.961 125 -999 161 6.3
2010-11-08 07:20:07 51°13.663 2°55.961 125 -999 122 6.3
2010-11-08 07:20:13 51°13.663 2°55.961 125 -999 71 6.3
2010-11-08 07:20:19 51°13.663 2°55.961 124.9 -999 157 -999
2010-11-08 07:20:24 51°13.663 2°55.961 124.9 0.1 86 -999
2010-11-08 07:20:29 51°13.663 2°55.961 124.9 0.1 29 6.3
2010-11-08 07:20:34 51°13.663 2°55.961 124.9 0.1 276 6.5
2010-11-08 07:20:39 51°13.663 2°55.961 124.9 -999 319 6.3
2010-11-08 07:20:43 51°13.663 2°55.961 124.9 -999 17 6.3
2010-11-08 07:20:48 51°13.663 2°55.961 124.9 -999 346 6.3
2010-11-08 07:20:53 51°13.663 2°55.961 124.9 -999 231 6.3
2010-11-08 07:20:58 51°13.663 2°55.961 124.9 -999 255 6.3
2010-11-08 07:21:03 51°13.663 2°55.961 124.9 -999 271 6.3
2010-11-08 07:21:07 51°13.663 2°55.961 124.9 -999 355 6.3
2010-11-08 07:21:13 51°13.663 2°55.961 124.9 -999 323 6.3
2010-11-08 07:21:18 51°13.663 2°55.961 124.9 -999 4 6.3
2010-11-08 07:21:23 51°13.663 2°55.961 124.9 -999 329 6.3
2010-11-08 07:21:27 51°13.663 2°55.961 124.9 -999 205 6.3
2010-11-08 07:21:33 51°13.663 2°55.961 124.9 -999 289 6.3
2010-11-08 07:21:38 51°13.662 2°55.961 124.9 -999 297 6.3
2010-11-08 07:21:43 51°13.662 2°55.961 124.9 -999 195 6.3
2010-11-08 07:21:47 51°13.662 2°55.961 124.9 -999 74 6.3
2010-11-08 07:21:53 51°13.662 2°55.961 124.9 -999 101 6.3
2010-11-08 07:21:57 51°13.662 2°55.961 124.9 -999 175 6.2
2010-11-08 07:22:03 51°13.662 2°55.961 124.9 -999 131 6.2
2010-11-08 07:22:07 51°13.662 2°55.961 124.9 -999 40 6.3
2010-11-08 07:22:13 51°13.662 2°55.961 124.9 0.1 316 6.3
2010-11-08 07:22:18 51°13.662 2°55.961 125 -999 174 6.2
2010-11-08 07:22:23 51°13.662 2°55.96 125 -999 329 6.2
2010-11-08 07:22:27 51°13.662 2°55.961 125 -999 24 6.3
2010-11-08 07:22:33 51°13.662 2°55.961 125 -999 120 6.3
2010-11-08 07:22:38 51°13.662 2°55.96 125 -999 301 6.3
2010-11-08 07:22:43 51°13.662 2°55.96 125 0.1 334 6.3
2010-11-08 07:22:47 51°13.662 2°55.961 125 -999 306 6.3
2010-11-08 07:22:53 51°13.662 2°55.961 125 -999 284 6.3
2010-11-08 07:22:58 51°13.662 2°55.961 125 -999 20 6.3
2010-11-08 07:23:03 51°13.662 2°55.961 125 -999 230 6.3
2010-11-08 07:23:07 51°13.662 2°55.961 125 0.1 218 6.3
2010-11-08 07:23:12 51°13.662 2°55.961 125.1 -999 307 6.3
2010-11-08 07:23:18 51°13.662 2°55.96 125.1 0.1 345 6.4
2010-11-08 07:23:23 51°13.662 2°55.96 125.1 0.1 297 6.4
2010-11-08 07:23:27 51°13.662 2°55.961 125.1 -999 263 6.3
2010-11-08 07:23:33 51°13.662 2°55.961 125.1 -999 74 6.3
2010-11-08 07:23:38 51°13.662 2°55.961 125.2 0.1 201 6.3
2010-11-08 07:23:43 51°13.662 2°55.961 125.2 0.1 129 6.3
2010-11-08 07:23:47 51°13.662 2°55.961 125.2 -999 137 6.3
2010-11-08 07:23:52 51°13.662 2°55.961 125.3 -999 49 6.3
2010-11-08 07:23:57 51°13.662 2°55.961 125.4 -999 308 6.3
2010-11-08 07:24:03 51°13.662 2°55.961 125.4 0.1 173 6.3
2010-11-08 07:24:07 51°13.662 2°55.961 125.4 -999 97 6.5
2010-11-08 07:24:12 51°13.662 2°55.961 125.4 -999 319 6.3
2010-11-08 07:24:17 51°13.662 2°55.961 125.4 0.1 169 6.3
2010-11-08 07:24:22 51°13.662 2°55.96 125.4 0.1 330 6.3
2010-11-08 07:24:27 51°13.662 2°55.96 125.4 0.1 262 6.5
2010-11-08 07:24:32 51°13.662 2°55.961 125.4 -999 210 6.3
2010-11-08 07:24:37 51°13.662 2°55.961 125.4 -999 219 6.3
2010-11-08 07:24:42 51°13.662 2°55.961 125.4 -999 148 6.5
2010-11-08 07:24:47 51°13.662 2°55.961 125.4 0.1 57 6.3
2010-11-08 07:24:51 51°13.662 2°55.961 125.4 -999 299 -999
2010-11-08 07:24:57 51°13.662 2°55.96 125.6 -999 262 6.3
2010-11-08 07:25:02 51°13.662 2°55.961 125.9 -999 206 6.3
2010-11-08 07:25:07 51°13.662 2°55.961 126.4 -999 197 6.3
2010-11-08 07:25:11 51°13.662 2°55.961 126.8 -999 104 6.3
2010-11-08 07:25:17 51°13.662 2°55.96 127.1 -999 354 6.3
2010-11-08 07:25:22 51°13.662 2°55.96 127.3 -999 -999 6.4
2010-11-08 07:25:27 51°13.662 2°55.961 127.4 -999 70 6.4
2010-11-08 07:25:31 51°13.662 2°55.961 127.5 -999 317 6.4
2010-11-08 07:25:37 51°13.662 2°55.96 127.5 -999 163 6.4
2010-11-08 07:25:42 51°13.662 2°55.961 127.5 -999 126 6.4
2010-11-08 07:25:47 51°13.662 2°55.961 127.5 -999 117 6.4
2010-11-08 07:25:52 51°13.662 2°55.961 127.5 0.1 33 6.4
2010-11-08 07:25:57 51°13.662 2°55.961 127.3 0.1 27 6.3
2010-11-08 07:26:02 51°13.662 2°55.961 126.8 -999 95 6.3
2010-11-08 07:26:07 51°13.662 2°55.961 125.9 0.1 129 6.3
2010-11-08 07:26:11 51°13.662 2°55.961 124.9 -999 169 6.3
2010-11-08 07:26:17 51°13.662 2°55.961 123.9 -999 295 6.3
2010-11-08 07:26:22 51°13.662 2°55.961 123.2 0.1 185 6.3
2010-11-08 07:26:27 51°13.662 2°55.961 122.6 0.1 154 -999
2010-11-08 07:26:32 51°13.662 2°55.961 121.8 0.1 279 -999
2010-11-08 07:26:37 51°13.662 2°55.961 121.1 0.1 181 6.3
2010-11-08 07:26:42 51°13.662 2°55.961 120.1 -999 188 6.4
2010-11-08 07:26:47 51°13.662 2°55.961 119.1 -999 233 -999
2010-11-08 07:26:52 51°13.662 2°55.961 118.1 0.1 217 6.3
2010-11-08 07:26:57 51°13.662 2°55.961 117.1 -999 213 6.3
2010-11-08 07:27:02 51°13.661 2°55.961 116.4 0.1 214 6.3
2010-11-08 07:27:07 51°13.661 2°55.961 115.5 0.1 188 6.3
2010-11-08 07:27:11 51°13.661 2°55.961 114.6 -999 186 6.3
2010-11-08 07:27:17 51°13.661 2°55.96 113.8 0.1 219 6.3
2010-11-08 07:27:22 51°13.661 2°55.96 113 -999 196 6.3
2010-11-08 07:27:27 51°13.661 2°55.961 112.3 0.1 135 6.3
2010-11-08 07:27:32 51°13.661 2°55.961 111.6 0.1 146 6.3
2010-11-08 07:27:37 51°13.661 2°55.96 110.9 -999 192 6.3
2010-11-08 07:27:42 51°13.661 2°55.96 110.3 0.1 236 6.3
2010-11-08 07:27:47 51°13.661 2°55.96 109.7 0.1 199 6.4
2010-11-08 07:27:51 51°13.661 2°55.96 109.1 0.1 224 6.4
2010-11-08 07:27:57 51°13.661 2°55.96 108.6 0.1 136 6.3
2010-11-08 07:28:03 51°13.661 2°55.96 108.1 0.1 265 -999
2010-11-08 07:28:07 51°13.661 2°55.959 107.5 0.2 292 6.4
2010-11-08 07:28:11 51°13.661 2°55.958 107.4 0.9 293 6.4
2010-11-08 07:28:17 51°13.662 2°55.955 107.4 1.3 294 6.4
2010-11-08 07:28:22 51°13.663 2°55.952 107.5 1.9 292 6.3
2010-11-08 07:28:27 51°13.664 2°55.947 107.5 2.3 293 6.1
2010-11-08 07:28:33 51°13.666 2°55.94 107.5 2.7 291 -999
2010-11-08 07:28:39 51°13.668 2°55.932 107.6 3.2 293 -999
2010-11-08 07:28:44 51°13.67 2°55.925 108.2 3.5 293 -999
2010-11-08 07:28:50 51°13.672 2°55.916 108.2 3.8 292 -999
2010-11-08 07:28:55 51°13.674 2°55.908 108 4.1 293 -999
2010-11-08 07:29:01 51°13.677 2°55.897 107.5 4.4 293 -999
2010-11-08 07:29:06 51°13.679 2°55.888 106.3 4.5 290 -999
2010-11-08 07:29:10 51°13.68 2°55.881 104.6 4.6 288 -999
2010-11-08 07:29:15 51°13.682 2°55.871 102.9 4.8 286 -999
2010-11-08 07:29:21 51°13.684 2°55.858 101.2 4.9 283 -999
2010-11-08 07:29:26 51°13.685 2°55.847 98.4 5 281 -999
2010-11-08 07:29:31 51°13.686 2°55.836 95.9 5.1 278 -999
2010-11-08 07:29:35 51°13.687 2°55.827 93.3 5 276 -999
2010-11-08 07:29:41 51°13.687 2°55.815 91.2 4.9 274 -999
2010-11-08 07:29:46 51°13.688 2°55.803 88.6 5 275 -999
2010-11-08 07:29:51 51°13.688 2°55.793 86.5 4.9 271 -999
2010-11-08 07:29:55 51°13.688 2°55.785 84.4 4.6 269 -999
2010-11-08 07:30:01 51°13.687 2°55.773 82.7 4.4 268 -999
2010-11-08 07:30:06 51°13.687 2°55.763 80.3 4.3 267 -999
2010-11-08 07:30:11 51°13.687 2°55.755 78.7 3.8 267 -999
2010-11-08 07:30:15 51°13.687 2°55.749 77.1 3.1 265 11
2010-11-08 07:30:20 51°13.687 2°55.743 75.6 2.5 268 10.8
2010-11-08 07:30:25 51°13.687 2°55.74 73 1.6 271 11
2010-11-08 07:30:30 51°13.687 2°55.737 69.7 1.1 287 11.2
2010-11-08 07:30:35 51°13.688 2°55.736 64.4 0.7 305 11.4
2010-11-08 07:30:39 51°13.688 2°55.735 58.8 0.6 337 11.6
2010-11-08 07:30:44 51°13.69 2°55.735 50.8 0.9 355 11.6
2010-11-08 07:30:49 51°13.691 2°55.735 45.1 1.2 12 11.7
2010-11-08 07:30:54 51°13.694 2°55.736 38.5 1.5 14 11.8
2010-11-08 07:30:59 51°13.696 2°55.736 31.8 1.9 6 11.3
2010-11-08 07:31:03 51°13.698 2°55.737 24.7 2 7 11.5
2010-11-08 07:31:08 51°13.702 2°55.737 17.8 2.3 1 11.2
2010-11-08 07:31:13 51°13.705 2°55.736 11 2.6 359 11.3
2010-11-08 07:31:18 51°13.709 2°55.735 4.7 2.8 355 11.4
2010-11-08 07:31:23 51°13.713 2°55.734 358.6 3.1 350 11.2
2010-11-08 07:31:27 51°13.717 2°55.733 353.7 3.5 348 11.4
2010-11-08 07:31:31 51°13.722 2°55.731 350.3 4.1 346 11.6
2010-11-08 07:31:37 51°13.728 2°55.728 346.6 4.6 341 11.1
2010-11-08 07:31:42 51°13.735 2°55.724 341.9 5.1 339 10.3
2010-11-08 07:31:47 51°13.742 2°55.719 338.6 5.5 337 10.2
2010-11-08 07:31:52 51°13.75 2°55.714 336.7 5.9 336 9.5
2010-11-08 07:31:57 51°13.757 2°55.708 335.4 6.4 333 9.1
2010-11-08 07:32:02 51°13.766 2°55.701 334 6.8 332 8.9
2010-11-08 07:32:07 51°13.774 2°55.693 332.8 7.1 331 -999
2010-11-08 07:32:13 51°13.785 2°55.684 332.3 7.5 331 9.4
2010-11-08 07:32:18 51°13.795 2°55.675 331.8 7.9 331 9.4
2010-11-08 07:32:23 51°13.805 2°55.667 331.7 8.2 332 8.8
2010-11-08 07:32:27 51°13.813 2°55.659 331.8 8.5 331 10
2010-11-08 07:32:32 51°13.824 2°55.651 331.8 8.9 333 9.2
2010-11-08 07:32:37 51°13.835 2°55.641 332.5 9.1 333 9.3
2010-11-08 07:32:42 51°13.847 2°55.632 333.5 9.3 334 9.7
2010-11-08 07:32:47 51°13.858 2°55.623 333.9 9.4 333 9.8
2010-11-08 07:32:51 51°13.868 2°55.616 333.3 9.6 334 10.5
2010-11-08 07:32:57 51°13.882 2°55.604 332.8 9.7 334 10.5
2010-11-08 07:33:02 51°13.895 2°55.596 334.6 9.7 336 9.8
2010-11-08 07:33:07 51°13.907 2°55.586 335.4 9.9 335 9.6
2010-11-08 07:33:11 51°13.917 2°55.579 335.6 9.9 335 9.2
2010-11-08 07:33:17 51°13.932 2°55.568 335.4 9.8 335 9
2010-11-08 07:33:22 51°13.945 2°55.559 335.1 9.8 334 9
2010-11-08 07:33:27 51°13.956 2°55.549 333.7 9.7 333 9.3
2010-11-08 07:33:31 51°13.966 2°55.542 332.8 9.8 333 9.2
2010-11-08 07:33:37 51°13.981 2°55.53 332.8 9.9 334 9
2010-11-08 07:33:43 51°13.996 2°55.518 332.7 9.9 332 9.2
2010-11-08 07:33:47 51°14.005 2°55.509 332.6 9.9 332 8.7
2010-11-08 07:33:52 51°14.018 2°55.5 332.8 10.1 333 8.6
2010-11-08 07:33:57 51°14.03 2°55.489 332.7 10.1 332 8.4
2010-11-08 07:34:02 51°14.042 2°55.479 332.5 10 332 -999
2010-11-08 07:34:07 51°14.055 2°55.468 332.6 10.1 332 8.5
2010-11-08 07:34:12 51°14.067 2°55.458 331.7 10.1 331 8.5
2010-11-08 07:34:17 51°14.08 2°55.448 332.3 10.2 334 8.2
2010-11-08 07:34:22 51°14.093 2°55.438 334 10.3 333 8.2
2010-11-08 07:34:27 51°14.106 2°55.428 334.9 10.4 335 8.4
2010-11-08 07:34:31 51°14.116 2°55.42 335 10.5 333 8.3
2010-11-08 07:34:37 51°14.131 2°55.408 334.7 10.4 334 8.7
2010-11-08 07:34:42 51°14.145 2°55.398 335 10.4 335 8.9
2010-11-08 07:34:47 51°14.158 2°55.387 334.7 10.5 333 9.4
2010-11-08 07:34:53 51°14.173 2°55.375 333.7 10.5 334 -999
2010-11-08 07:34:59 51°14.189 2°55.361 332.9 10.6 331 -999
2010-11-08 07:35:04 51°14.202 2°55.35 331.3 10.6 330 -999
2010-11-08 07:35:10 51°14.217 2°55.335 329.9 10.6 329 -999
2010-11-08 07:35:15 51°14.229 2°55.323 329.3 10.7 329 -999
2010-11-08 07:35:20 51°14.242 2°55.311 329.3 10.7 329 -999
2010-11-08 07:35:26 51°14.257 2°55.296 328.4 10.7 328 -999
2010-11-08 07:35:31 51°14.27 2°55.283 327.9 10.7 328 8.7
2010-11-08 07:35:35 51°14.28 2°55.273 327.9 10.9 328 -999
2010-11-08 07:35:41 51°14.295 2°55.257 328.1 10.9 327 -999
2010-11-08 07:35:45 51°14.306 2°55.247 327.6 11.1 328 8.2
2010-11-08 07:35:50 51°14.319 2°55.234 327.7 11.2 328 -999
2010-11-08 07:35:55 51°14.331 2°55.221 327.9 11.1 327 -999
2010-11-08 07:36:00 51°14.345 2°55.207 327.5 11.2 328 8.3
2010-11-08 07:36:05 51°14.358 2°55.194 327.8 11.3 328 8.2
2010-11-08 07:36:10 51°14.371 2°55.181 328.1 11.3 328 8.3
2010-11-08 07:36:15 51°14.385 2°55.168 328.4 11.4 330 8.5
2010-11-08 07:36:19 51°14.396 2°55.158 330 11.7 330 8.3
2010-11-08 07:36:24 51°14.41 2°55.145 330.7 11.8 330 8.6
2010-11-08 07:36:29 51°14.424 2°55.133 330.6 11.8 331 8.6
2010-11-08 07:36:34 51°14.439 2°55.12 331.5 11.8 331 8.5
2010-11-08 07:36:39 51°14.453 2°55.107 331.8 11.8 330 8.7
2010-11-08 07:36:43 51°14.464 2°55.097 331.6 11.8 331 8.9
2010-11-08 07:36:48 51°14.478 2°55.083 331.6 11.9 329 8.9
2010-11-08 07:36:53 51°14.493 2°55.07 330.8 12.1 330 9
2010-11-08 07:36:58 51°14.508 2°55.057 330.5 12.2 330 9.1
2010-11-08 07:37:03 51°14.522 2°55.043 330.5 12 328 9.4
2010-11-08 07:37:07 51°14.532 2°55.029 328.6 12.2 323 9.6
2010-11-08 07:37:12 51°14.546 2°55.013 325.4 12.2 321 9.7
2010-11-08 07:37:17 51°14.558 2°54.994 322 12.4 316 9.7
2010-11-08 07:37:22 51°14.57 2°54.974 318.4 12.4 313 9.8
2010-11-08 07:37:27 51°14.582 2°54.954 316.4 12.4 311 9.7
2010-11-08 07:37:31 51°14.59 2°54.936 313.9 12.6 306 9.8
2010-11-08 07:37:37 51°14.602 2°54.908 310.6 12.7 305 9.8
2010-11-08 07:37:42 51°14.611 2°54.884 308.1 12.7 302 9.7
2010-11-08 07:37:47 51°14.62 2°54.86 305.7 12.7 299 9.6
2010-11-08 07:37:52 51°14.627 2°54.834 301.5 12.8 294 9.6
2010-11-08 07:37:57 51°14.633 2°54.807 296.3 12.9 288 9.9
2010-11-08 07:38:02 51°14.637 2°54.78 291 12.9 284 9.9
2010-11-08 07:38:07 51°14.64 2°54.752 285.8 13 280 9.9
2010-11-08 07:38:11 51°14.641 2°54.729 280.6 12.8 273 10
2010-11-08 07:38:17 51°14.641 2°54.695 275.3 12.8 268 9.6
2010-11-08 07:38:22 51°14.64 2°54.666 270.1 12.9 264 9.5
2010-11-08 07:38:27 51°14.637 2°54.638 264.7 13 260 8.5
2010-11-08 07:38:31 51°14.633 2°54.616 259.4 12.9 254 8.4
2010-11-08 07:38:37 51°14.627 2°54.583 253.9 12.8 250 8.2
2010-11-08 07:38:42 51°14.619 2°54.558 248.7 12.8 244 8.2
2010-11-08 07:38:47 51°14.61 2°54.533 243.7 12.8 241 8.1
2010-11-08 07:38:51 51°14.603 2°54.513 238.9 13 238 8.2
2010-11-08 07:38:57 51°14.591 2°54.484 235.8 13.1 237 8.2
2010-11-08 07:39:02 51°14.581 2°54.46 235.2 13.2 237 8.2
2010-11-08 07:39:07 51°14.57 2°54.436 234.7 13.2 235 8.1
2010-11-08 07:39:11 51°14.561 2°54.417 232.9 13.4 232 8
2010-11-08 07:39:17 51°14.548 2°54.389 230.6 13.4 232 5.9
2010-11-08 07:39:22 51°14.536 2°54.367 228.1 13.4 230 -999
2010-11-08 07:39:27 51°14.523 2°54.344 227.3 13.4 231 8
2010-11-08 07:39:31 51°14.514 2°54.326 228 13.4 230 8
2010-11-08 07:39:37 51°14.5 2°54.298 227.6 13.5 231 8
2010-11-08 07:39:42 51°14.489 2°54.274 227.3 13.6 232 7.9
2010-11-08 07:39:47 51°14.477 2°54.251 227.7 13.6 231 7.8
2010-11-08 07:39:52 51°14.464 2°54.229 227.6 13.5 231 5.8
2010-11-08 07:39:57 51°14.452 2°54.205 227.6 13.7 230 7.6
2010-11-08 07:40:02 51°14.44 2°54.183 228 13.6 231 7.6
2010-11-08 07:40:07 51°14.429 2°54.159 228.1 13.5 231 7.5
2010-11-08 07:40:11 51°14.419 2°54.14 229.4 13.5 233 5.7
2010-11-08 07:40:17 51°14.406 2°54.111 230.2 13.6 233 7.5
2010-11-08 07:40:22 51°14.395 2°54.087 230.9 13.6 234 7.5
2010-11-08 07:40:27 51°14.384 2°54.063 231.6 13.6 234 7.6
2010-11-08 07:40:32 51°14.373 2°54.038 232 13.6 235 7.5
2010-11-08 07:40:37 51°14.362 2°54.013 232.5 13.7 236 7.4
2010-11-08 07:40:42 51°14.351 2°53.989 233 13.7 235 7.4
2010-11-08 07:40:47 51°14.341 2°53.963 233.8 13.6 237 7.4
2010-11-08 07:40:51 51°14.333 2°53.943 234.8 13.6 236 7.5
2010-11-08 07:40:57 51°14.321 2°53.912 235.7 13.7 239 7.5
2010-11-08 07:41:02 51°14.311 2°53.887 236.7 13.7 238 7.4
2010-11-08 07:41:07 51°14.301 2°53.86 237.1 13.7 239 7.5
2010-11-08 07:41:11 51°14.294 2°53.839 238.2 13.7 240 7.5
2010-11-08 07:41:17 51°14.282 2°53.808 238.2 13.8 239 7.4
2010-11-08 07:41:22 51°14.272 2°53.782 238.2 13.8 240 7.5
2010-11-08 07:41:27 51°14.262 2°53.756 238.6 13.8 239 7.5
2010-11-08 07:41:32 51°14.253 2°53.729 238.1 13.8 239 7.5
2010-11-08 07:41:37 51°14.243 2°53.703 238 13.8 239 7.5
2010-11-08 07:41:42 51°14.232 2°53.677 237.4 13.8 238 7.5
2010-11-08 07:41:47 51°14.222 2°53.651 236.9 13.8 237 7.5
2010-11-08 07:41:51 51°14.214 2°53.631 236.2 13.9 237 7.4
2010-11-08 07:41:57 51°14.201 2°53.6 235.7 13.9 238 5.7
2010-11-08 07:42:02 51°14.191 2°53.574 235.9 13.9 237 7.5
2010-11-08 07:42:07 51°14.181 2°53.548 235.9 13.9 238 7.5
2010-11-08 07:42:11 51°14.172 2°53.527 236.3 14 238 7.5
2010-11-08 07:42:17 51°14.16 2°53.496 236.4 13.9 238 5.8
2010-11-08 07:42:22 51°14.15 2°53.469 236.4 13.9 238 7.6
2010-11-08 07:42:27 51°14.139 2°53.444 236.7 14 237 7.7
2010-11-08 07:42:32 51°14.129 2°53.417 236.6 14 238 7.7
2010-11-08 07:42:37 51°14.118 2°53.391 236.6 14 238 7.7
2010-11-08 07:42:42 51°14.108 2°53.365 236.4 14 239 7.6
2010-11-08 07:42:47 51°14.098 2°53.339 236.9 14 238 5.8
2010-11-08 07:42:52 51°14.088 2°53.312 236.9 14 238 7.6
2010-11-08 07:42:57 51°14.077 2°53.286 236.8 14.1 238 7.8
2010-11-08 07:43:02 51°14.067 2°53.26 236.9 14 237 7.7
2010-11-08 07:43:07 51°14.056 2°53.233 236.6 14.1 238 7.7
2010-11-08 07:43:11 51°14.048 2°53.212 236.3 14.1 237 7.8
2010-11-08 07:43:17 51°14.035 2°53.181 236 14.2 237 5.8
2010-11-08 07:43:22 51°14.025 2°53.154 235.9 14.2 237 7.8
2010-11-08 07:43:27 51°14.014 2°53.128 235.8 14.2 237 7.8
2010-11-08 07:43:31 51°14.005 2°53.107 235.3 14.2 236 7.9
2010-11-08 07:43:37 51°13.992 2°53.076 235 14.2 236 8
2010-11-08 07:43:42 51°13.981 2°53.05 234.8 14.2 236 7.9
2010-11-08 07:43:47 51°13.97 2°53.024 234.2 14.2 236 8
2010-11-08 07:43:52 51°13.959 2°52.997 234.5 14.3 237 5.9
2010-11-08 07:43:57 51°13.948 2°52.971 234.5 14.2 237 -999
2010-11-08 07:44:02 51°13.938 2°52.944 235 14.3 237 8
2010-11-08 07:44:07 51°13.926 2°52.918 235.2 14.3 237 8
2010-11-08 07:44:11 51°13.918 2°52.897 235.6 14.3 237 8
2010-11-08 07:44:17 51°13.905 2°52.865 235.8 14.3 238 8
2010-11-08 07:44:22 51°13.894 2°52.839 235.5 14.3 237 8
2010-11-08 07:44:27 51°13.883 2°52.812 235.2 14.3 237 5.9
2010-11-08 07:44:31 51°13.874 2°52.791 234.9 14.3 236 -999
2010-11-08 07:44:37 51°13.861 2°52.76 234.3 14.3 236 8
2010-11-08 07:44:42 51°13.85 2°52.734 234.1 14.3 235 8.1
2010-11-08 07:44:47 51°13.838 2°52.708 233.4 14.3 234 8
2010-11-08 07:44:51 51°13.829 2°52.688 231.7 14.3 234 8.1
2010-11-08 07:44:57 51°13.815 2°52.658 231.6 14.3 233 8.1
2010-11-08 07:45:02 51°13.802 2°52.633 230.9 14.3 233 8.1
2010-11-08 07:45:07 51°13.791 2°52.607 231.7 14.4 235 6
2010-11-08 07:45:12 51°13.779 2°52.581 232.5 14.3 234 8.3
2010-11-08 07:45:17 51°13.769 2°52.555 233.1 14.3 236 8.1
2010-11-08 07:45:22 51°13.758 2°52.528 234.6 14.4 238 8.2
2010-11-08 07:45:27 51°13.748 2°52.5 236.7 14.4 240 8.2
2010-11-08 07:45:31 51°13.74 2°52.478 237.9 14.3 240 8.2
2010-11-08 07:45:37 51°13.728 2°52.445 238.7 14.3 241 8.2
2010-11-08 07:45:42 51°13.719 2°52.417 240.1 14.3 242 8.2
2010-11-08 07:45:47 51°13.71 2°52.389 240.8 14.4 242 8.2
2010-11-08 07:45:52 51°13.701 2°52.361 241.1 14.5 243 8.3
2010-11-08 07:45:57 51°13.692 2°52.332 241.8 14.5 243 8.3
2010-11-08 07:46:02 51°13.682 2°52.304 242.1 14.4 242 6.1
2010-11-08 07:46:07 51°13.673 2°52.275 241.8 14.5 243 8.3
2010-11-08 07:46:11 51°13.666 2°52.253 242.2 14.5 243 8.3
2010-11-08 07:46:17 51°13.655 2°52.219 242 14.5 242 8.3
2010-11-08 07:46:22 51°13.645 2°52.191 241.5 14.5 242 8.3
2010-11-08 07:46:27 51°13.635 2°52.163 241.3 14.5 241 8.4
2010-11-08 07:46:31 51°13.628 2°52.14 241.1 14.4 242 8.4
2010-11-08 07:46:37 51°13.617 2°52.106 241.1 14.5 242 8.4
2010-11-08 07:46:42 51°13.608 2°52.078 241.5 14.5 243 8.4
2010-11-08 07:46:47 51°13.599 2°52.049 241.8 14.5 243 8.4
2010-11-08 07:46:52 51°13.59 2°52.02 241.8 14.5 242 8.5
2010-11-08 07:46:57 51°13.58 2°51.992 241.3 14.5 243 8.5
2010-11-08 07:47:02 51°13.571 2°51.963 241.6 14.5 243 8.4
2010-11-08 07:47:07 51°13.562 2°51.935 241 14.5 242 8.4
2010-11-08 07:47:11 51°13.555 2°51.912 241.8 14.3 245 8.4
2010-11-08 07:47:17 51°13.545 2°51.877 243.6 14 248 8.5
2010-11-08 07:47:22 51°13.539 2°51.849 246.6 13.7 250 8.5
2010-11-08 07:47:27 51°13.533 2°51.822 249.1 13.3 251 8.6
2010-11-08 07:47:32 51°13.527 2°51.794 251.5 12.7 253 8.7
2010-11-08 07:47:37 51°13.523 2°51.768 253.3 12.1 253 8.8
2010-11-08 07:47:42 51°13.518 2°51.744 253.8 11.5 253 8.9
2010-11-08 07:47:47 51°13.513 2°51.721 253.5 11 252 8.9
2010-11-08 07:47:51 51°13.51 2°51.704 252.6 10.3 252 8.9
2010-11-08 07:47:57 51°13.505 2°51.678 251.9 9.9 251 9
2010-11-08 07:48:02 51°13.5 2°51.658 250.1 9.4 249 8.9
2010-11-08 07:48:07 51°13.495 2°51.64 247.9 9 247 9.1
2010-11-08 07:48:12 51°13.49 2°51.623 245.3 8.6 246 9.1
2010-11-08 07:48:17 51°13.485 2°51.607 242.7 8 244 9.1
2010-11-08 07:48:22 51°13.48 2°51.591 240.5 7.7 244 9.1
2010-11-08 07:48:27 51°13.476 2°51.577 238.9 7.5 243 9.1
2010-11-08 07:48:31 51°13.472 2°51.566 238.2 7 242 9.1
2010-11-08 07:48:37 51°13.467 2°51.549 239.2 6.7 244 9.2
2010-11-08 07:48:42 51°13.463 2°51.536 240.3 6.5 244 9.1
2010-11-08 07:48:47 51°13.459 2°51.524 240.4 6.2 245 9.1
2010-11-08 07:48:51 51°13.456 2°51.514 239.7 5.8 244 9.2
2010-11-08 07:48:57 51°13.452 2°51.502 238.5 5.3 245 9.2
2010-11-08 07:49:02 51°13.449 2°51.491 238.3 5 247 9.2
2010-11-08 07:49:07 51°13.447 2°51.482 239.8 4.8 247 9.2
2010-11-08 07:49:11 51°13.445 2°51.475 243 4.3 251 9.2
2010-11-08 07:49:17 51°13.443 2°51.465 246 3.9 253 9.2
2010-11-08 07:49:22 51°13.441 2°51.457 250.4 3.4 256 9.2
2010-11-08 07:49:27 51°13.44 2°51.451 255.7 3 255 9.3
2010-11-08 07:49:32 51°13.439 2°51.446 261.3 2.5 257 9.2
2010-11-08 07:49:37 51°13.439 2°51.441 266.5 2 254 9.2
2010-11-08 07:49:42 51°13.438 2°51.438 270.5 1.6 254 9.2
2010-11-08 07:49:47 51°13.437 2°51.435 273.8 1.4 250 9.3
2010-11-08 07:49:51 51°13.437 2°51.433 276.5 1.1 248 9.2
2010-11-08 07:49:57 51°13.436 2°51.431 278.7 0.9 236 9.3
2010-11-08 07:50:02 51°13.436 2°51.43 280.7 0.7 227 9.2
2010-11-08 07:50:07 51°13.435 2°51.429 282.5 0.8 214 9.2
2010-11-08 07:50:11 51°13.434 2°51.428 284.7 0.6 227 -999
2010-11-08 07:50:18 51°13.433 2°51.426 286.2 0.8 232 -999
2010-11-08 07:50:23 51°13.433 2°51.425 287.8 0.8 237 -999
2010-11-08 07:50:29 51°13.432 2°51.423 288.9 0.8 233 -999
2010-11-08 07:50:35 51°13.431 2°51.421 289.7 0.9 238 -999
2010-11-08 07:50:39 51°13.431 2°51.419 290.5 0.9 240 9.3
2010-11-08 07:50:45 51°13.43 2°51.417 291.1 0.9 246 -999
2010-11-08 07:50:51 51°13.429 2°51.415 291.7 0.9 245 -999
2010-11-08 07:50:55 51°13.429 2°51.414 292.2 1 242 -999
2010-11-08 07:51:00 51°13.428 2°51.412 292.7 0.9 256 9.3
2010-11-08 07:51:05 51°13.428 2°51.409 292.7 1.1 247 -999
2010-11-08 07:51:11 51°13.428 2°51.407 293.2 1 256 -999
2010-11-08 07:51:15 51°13.427 2°51.405 293.2 1.1 253 -999
2010-11-08 07:51:20 51°13.427 2°51.403 293.4 1 256 9.3
2010-11-08 07:51:25 51°13.426 2°51.401 293.4 1.1 254 4.9
2010-11-08 07:51:30 51°13.426 2°51.398 293.9 1 254 9.3
2010-11-08 07:51:35 51°13.426 2°51.396 294 1.1 252 -999
2010-11-08 07:51:40 51°13.425 2°51.393 294.2 1.1 260 4.9
2010-11-08 07:51:45 51°13.425 2°51.391 294.6 1.1 254 9.3
2010-11-08 07:51:50 51°13.425 2°51.388 294.7 1.2 268 9.3
2010-11-08 07:51:55 51°13.425 2°51.386 294.7 1.3 257 9.3
2010-11-08 07:51:59 51°13.425 2°51.384 294.6 1.2 265 9.2
2010-11-08 07:52:04 51°13.424 2°51.381 294.1 1.2 260 9.3
2010-11-08 07:52:09 51°13.424 2°51.379 293.9 1.1 260 9.3
2010-11-08 07:52:14 51°13.424 2°51.376 293.3 1.2 263 9.3
2010-11-08 07:52:19 51°13.424 2°51.374 292.6 1.2 266 9.3
2010-11-08 07:52:23 51°13.424 2°51.371 292 1.3 266 9.3
2010-11-08 07:52:28 51°13.424 2°51.369 291.3 1.3 263 9.3
2010-11-08 07:52:33 51°13.424 2°51.366 290.7 1.2 267 9.3
2010-11-08 07:52:38 51°13.424 2°51.363 289.9 1.3 266 9.3
2010-11-08 07:52:43 51°13.424 2°51.36 289.4 1.2 266 9.4
2010-11-08 07:52:47 51°13.424 2°51.358 288.7 1.4 274 9.3
2010-11-08 07:52:52 51°13.424 2°51.354 288.2 1.4 277 9.3
2010-11-08 07:52:57 51°13.423 2°51.352 287.8 1.4 269 9.3
2010-11-08 07:53:02 51°13.423 2°51.349 287.3 1.3 267 9.3
2010-11-08 07:53:07 51°13.423 2°51.346 286.9 1.3 269 9.3
2010-11-08 07:53:11 51°13.423 2°51.344 286.4 1.3 267 9.4
2010-11-08 07:53:17 51°13.423 2°51.34 286.1 1.4 275 9.3
2010-11-08 07:53:22 51°13.423 2°51.338 285.4 1.4 264 9.3
2010-11-08 07:53:27 51°13.423 2°51.335 284.9 1.3 272 9.3
2010-11-08 07:53:32 51°13.423 2°51.332 284.5 1.4 265 9.3
2010-11-08 07:53:37 51°13.423 2°51.328 284 1.4 274 9.4
2010-11-08 07:53:42 51°13.423 2°51.325 283.8 1.4 267 9.4
2010-11-08 07:53:47 51°13.423 2°51.322 283.5 1.4 270 9.4
2010-11-08 07:53:52 51°13.422 2°51.32 283.2 1.4 265 9.3
2010-11-08 07:53:57 51°13.423 2°51.316 282.9 1.4 269 9.3
2010-11-08 07:54:02 51°13.423 2°51.313 282.4 1.4 270 9.3
2010-11-08 07:54:07 51°13.423 2°51.31 281.9 1.4 268 9.4
2010-11-08 07:54:12 51°13.423 2°51.307 281.4 1.5 270 9.3
2010-11-08 07:54:17 51°13.423 2°51.303 280.9 1.5 271 9.3
2010-11-08 07:54:22 51°13.423 2°51.3 280.2 1.5 269 9.3
2010-11-08 07:54:27 51°13.423 2°51.297 279.5 1.5 267 9.3
2010-11-08 07:54:31 51°13.422 2°51.294 278.9 1.4 264 9.4
2010-11-08 07:54:37 51°13.422 2°51.29 278.2 1.5 267 9.3
2010-11-08 07:54:42 51°13.422 2°51.287 277.5 1.5 263 9.4
2010-11-08 07:54:47 51°13.422 2°51.284 276.9 1.5 269 9.3
2010-11-08 07:54:51 51°13.422 2°51.281 276.2 1.5 266 9.3
2010-11-08 07:54:57 51°13.422 2°51.277 275.4 1.5 272 9.3
2010-11-08 07:55:02 51°13.422 2°51.273 274.6 1.6 271 9.3
2010-11-08 07:55:07 51°13.423 2°51.27 273.8 1.7 278 9.3
2010-11-08 07:55:11 51°13.422 2°51.267 273 1.6 267 9.3
2010-11-08 07:55:17 51°13.422 2°51.263 272.3 1.6 268 9.3
2010-11-08 07:55:22 51°13.422 2°51.259 271.3 1.8 265 9.4
2010-11-08 07:55:27 51°13.422 2°51.255 269.7 2 270 9.3
2010-11-08 07:55:32 51°13.421 2°51.25 267.7 2.1 266 9.3
2010-11-08 07:55:37 51°13.421 2°51.245 265.1 2.3 265 9.3
2010-11-08 07:55:42 51°13.421 2°51.24 262.3 2.5 262 9.3
2010-11-08 07:55:47 51°13.42 2°51.235 259.2 2.5 261 9.3
2010-11-08 07:55:51 51°13.42 2°51.23 256 2.6 261 9.4
2010-11-08 07:55:57 51°13.419 2°51.223 252.6 2.8 262 9.4
2010-11-08 07:56:02 51°13.418 2°51.217 249.2 2.9 252 9.4
2010-11-08 07:56:07 51°13.416 2°51.211 246.1 3 251 9.4
2010-11-08 07:56:11 51°13.415 2°51.206 242.9 3 251 9.4
2010-11-08 07:56:17 51°13.414 2°51.198 239.8 3.1 252 9.4
2010-11-08 07:56:22 51°13.413 2°51.191 236.7 3.2 251 9.3
2010-11-08 07:56:27 51°13.411 2°51.185 233.8 3.3 248 9.4
2010-11-08 07:56:31 51°13.409 2°51.18 230.8 3.3 243 9.4
2010-11-08 07:56:37 51°13.406 2°51.172 227.8 3.3 242 9.4
2010-11-08 07:56:42 51°13.404 2°51.166 224.7 3.3 240 9.3
2010-11-08 07:56:47 51°13.401 2°51.159 221.9 3.4 238 9.4
2010-11-08 07:56:52 51°13.398 2°51.153 218.7 3.5 232 9.4
2010-11-08 07:56:57 51°13.395 2°51.147 215.4 3.5 231 9.3
2010-11-08 07:57:02 51°13.392 2°51.142 211.6 3.5 228 9.4
2010-11-08 07:57:07 51°13.389 2°51.135 207.9 3.6 226 9.3
2010-11-08 07:57:12 51°13.385 2°51.13 204 3.6 223 9.4
2010-11-08 07:57:17 51°13.381 2°51.125 200.3 3.6 219 9.3
2010-11-08 07:57:22 51°13.377 2°51.12 196.4 3.6 216 9.4
2010-11-08 07:57:27 51°13.373 2°51.116 192.5 3.6 213 9.4
2010-11-08 07:57:31 51°13.37 2°51.113 188.8 3.6 210 9.4
2010-11-08 07:57:37 51°13.365 2°51.108 185.2 3.4 209 9.4
2010-11-08 07:57:42 51°13.36 2°51.105 181.4 3.3 206 9.4
2010-11-08 07:57:47 51°13.356 2°51.102 177.3 3.3 204 9.4
2010-11-08 07:57:51 51°13.353 2°51.1 173.6 3.1 200 9.4
2010-11-08 07:57:57 51°13.347 2°51.097 169.5 3.2 197 9.4
2010-11-08 07:58:02 51°13.343 2°51.096 165.6 3.2 193 9.4
2010-11-08 07:58:07 51°13.338 2°51.095 162.5 3.3 190 9.4
2010-11-08 07:58:11 51°13.335 2°51.094 160.6 3.3 188 9.3
2010-11-08 07:58:17 51°13.329 2°51.093 159.2 3.5 185 9.4
2010-11-08 07:58:22 51°13.324 2°51.093 158.4 3.7 183 9.4
2010-11-08 07:58:27 51°13.319 2°51.092 157.4 3.8 182 9.4
2010-11-08 07:58:32 51°13.313 2°51.093 156.4 4.1 180 9.4
2010-11-08 07:58:37 51°13.307 2°51.093 155.8 4.1 178 9.4
2010-11-08 07:58:42 51°13.301 2°51.093 155.8 4.4 177 9.4
2010-11-08 07:58:47 51°13.295 2°51.094 156.2 4.5 177 9.4
2010-11-08 07:58:51 51°13.29 2°51.094 157.1 4.6 179 9.3
2010-11-08 07:58:57 51°13.282 2°51.094 158.3 4.8 179 9.4
2010-11-08 07:59:02 51°13.275 2°51.094 159.7 4.9 180 9.3
2010-11-08 07:59:07 51°13.269 2°51.093 161.5 4.9 183 9.2
2010-11-08 07:59:11 51°13.263 2°51.093 163.9 5.2 184 9.3
2010-11-08 07:59:17 51°13.254 2°51.092 166.6 5.3 187 9.3
2010-11-08 07:59:22 51°13.247 2°51.09 169.6 5.3 189 9.2
2010-11-08 07:59:27 51°13.24 2°51.087 172.8 5.4 193 9.2
2010-11-08 07:59:31 51°13.234 2°51.085 176 5.5 195 9.3
2010-11-08 07:59:37 51°13.225 2°51.08 179.6 5.5 198 9.3
2010-11-08 07:59:42 51°13.218 2°51.076 182.8 5.6 201 9.2
2010-11-08 07:59:47 51°13.211 2°51.071 185.9 5.7 203 9.2
2010-11-08 07:59:51 51°13.205 2°51.067 188.7 5.6 205 9.1
2010-11-08 07:59:57 51°13.197 2°51.06 190.9 5.5 208 9.2
2010-11-08 08:00:02 51°13.191 2°51.054 192.9 5.2 210 9.2
2010-11-08 08:00:07 51°13.185 2°51.048 194.9 5.2 213 9.2
2010-11-08 08:00:12 51°13.179 2°51.042 196.8 5.1 212 9.1
2010-11-08 08:00:17 51°13.173 2°51.036 198 5 215 9.2
2010-11-08 08:00:22 51°13.168 2°51.029 199 4.7 217 9.1
2010-11-08 08:00:27 51°13.162 2°51.024 200.4 4.7 216 9.2
2010-11-08 08:00:31 51°13.158 2°51.018 201.6 4.5 218 9.2
2010-11-08 08:00:37 51°13.153 2°51.011 203 4.5 220 9.1
2010-11-08 08:00:42 51°13.148 2°51.004 204 4.4 221 9.1
2010-11-08 08:00:47 51°13.144 2°50.998 205.3 4.3 222 9.1
2010-11-08 08:00:51 51°13.14 2°50.993 206.2 4.2 224 9.1
2010-11-08 08:00:57 51°13.135 2°50.985 207.4 4.1 223 9.1
2010-11-08 08:01:02 51°13.131 2°50.979 208.3 4.1 226 9.2
2010-11-08 08:01:07 51°13.127 2°50.972 209.2 4 227 9.1
2010-11-08 08:01:11 51°13.124 2°50.967 209.8 3.9 228 9.1
2010-11-08 08:01:17 51°13.12 2°50.959 210.7 3.8 228 9.1
2010-11-08 08:01:22 51°13.117 2°50.953 211.3 3.8 232 9.1
2010-11-08 08:01:27 51°13.113 2°50.946 212 3.7 230 9.1
2010-11-08 08:01:32 51°13.11 2°50.94 212.7 3.7 232 9.1
2010-11-08 08:01:37 51°13.107 2°50.934 213.2 3.7 231 9.2
2010-11-08 08:01:42 51°13.104 2°50.928 213.5 3.5 230 9.1
2010-11-08 08:01:47 51°13.101 2°50.922 213.7 3.4 231 9.1
2010-11-08 08:01:51 51°13.098 2°50.917 213.6 3.4 231 9.2
2010-11-08 08:01:57 51°13.095 2°50.91 213.5 3.4 230 9
2010-11-08 08:02:02 51°13.092 2°50.904 213.1 3.3 231 9.1
2010-11-08 08:02:07 51°13.09 2°50.899 213 3.3 232 9.1
2010-11-08 08:02:11 51°13.088 2°50.894 212.7 3.3 233 9.1
2010-11-08 08:02:17 51°13.084 2°50.887 212.6 3.3 232 9.1
2010-11-08 08:02:22 51°13.082 2°50.881 212.4 3.3 232 9.1
2010-11-08 08:02:27 51°13.079 2°50.876 211.8 3.3 230 9.2
2010-11-08 08:02:31 51°13.077 2°50.871 211.3 3.3 232 9.1
2010-11-08 08:02:37 51°13.073 2°50.864 210.7 3.3 231 9.1
2010-11-08 08:02:42 51°13.07 2°50.859 210.4 3.4 230 9.2
2010-11-08 08:02:47 51°13.067 2°50.853 209.9 3.4 230 9.1
2010-11-08 08:02:51 51°13.065 2°50.848 209.4 3.4 231 9.1
2010-11-08 08:02:57 51°13.061 2°50.841 208.9 3.4 230 9.1
2010-11-08 08:03:02 51°13.058 2°50.836 208.6 3.4 229 9.1
2010-11-08 08:03:07 51°13.055 2°50.83 208.1 3.4 227 9.1
2010-11-08 08:03:12 51°13.052 2°50.825 207.7 3.4 228 9.1
2010-11-08 08:03:17 51°13.048 2°50.819 206.8 3.4 227 9.1
2010-11-08 08:03:22 51°13.045 2°50.814 206.2 3.4 228 9
2010-11-08 08:03:27 51°13.042 2°50.808 205.7 3.4 226 9.1
2010-11-08 08:03:31 51°13.039 2°50.804 205.4 3.4 227 9
2010-11-08 08:03:37 51°13.035 2°50.797 205 3.4 226 9
2010-11-08 08:03:42 51°13.032 2°50.792 204.7 3.4 227 9
2010-11-08 08:03:47 51°13.028 2°50.787 204.1 3.5 225 9
2010-11-08 08:03:51 51°13.026 2°50.782 203.6 3.4 226 9
2010-11-08 08:03:57 51°13.022 2°50.776 203.2 3.4 225 9.1
2010-11-08 08:04:02 51°13.018 2°50.77 202.7 3.4 226 9
2010-11-08 08:04:07 51°13.015 2°50.766 202.3 3.4 222 9
2010-11-08 08:04:11 51°13.012 2°50.761 201.6 3.4 223 9
2010-11-08 08:04:17 51°13.008 2°50.755 201.1 3.4 222 9
2010-11-08 08:04:22 51°13.004 2°50.75 200.3 3.4 223 9
2010-11-08 08:04:27 51°13.001 2°50.745 199.9 3.3 222 8.9
2010-11-08 08:04:32 51°12.997 2°50.741 199.1 3.4 221 9
2010-11-08 08:04:37 51°12.994 2°50.736 198.7 3.4 221 9
2010-11-08 08:04:42 51°12.99 2°50.731 198.1 3.4 220 8.9
2010-11-08 08:04:47 51°12.987 2°50.726 197.2 3.4 220 8.9
2010-11-08 08:04:51 51°12.983 2°50.723 196.6 3.4 215 9
2010-11-08 08:04:57 51°12.979 2°50.718 196.2 3.4 217 8.9
2010-11-08 08:05:02 51°12.975 2°50.713 195.8 3.4 217 8.9
2010-11-08 08:05:07 51°12.971 2°50.708 195.3 3.5 217 8.9
2010-11-08 08:05:11 51°12.968 2°50.705 195.3 3.5 218 8.9
2010-11-08 08:05:17 51°12.963 2°50.699 195.4 3.5 218 8.9
2010-11-08 08:05:22 51°12.96 2°50.694 196.1 3.5 219 8.9
2010-11-08 08:05:27 51°12.956 2°50.689 196.8 3.5 219 8.9
2010-11-08 08:05:31 51°12.953 2°50.685 197.6 3.5 221 8.9
2010-11-08 08:05:37 51°12.948 2°50.679 198.6 3.6 218 9.1
2010-11-08 08:05:42 51°12.945 2°50.674 199.5 3.6 222 8.9
2010-11-08 08:05:47 51°12.941 2°50.669 200 3.5 219 8.9
2010-11-08 08:05:51 51°12.938 2°50.665 200.7 3.7 222 8.9
2010-11-08 08:05:57 51°12.933 2°50.659 201.3 3.6 219 8.9
2010-11-08 08:06:02 51°12.929 2°50.653 202.1 3.7 223 9
2010-11-08 08:06:07 51°12.926 2°50.648 203.3 3.6 221 8.8
2010-11-08 08:06:12 51°12.922 2°50.642 204.4 3.7 223 8.9
2010-11-08 08:06:17 51°12.919 2°50.637 205.5 3.6 224 8.9
2010-11-08 08:06:22 51°12.915 2°50.631 206.9 3.7 225 8.9
2010-11-08 08:06:27 51°12.912 2°50.625 208 3.7 225 9
2010-11-08 08:06:31 51°12.909 2°50.62 209 3.7 227 8.8
2010-11-08 08:06:37 51°12.905 2°50.613 209.8 3.7 227 8.8
2010-11-08 08:06:42 51°12.901 2°50.607 210.6 3.7 229 8.7
2010-11-08 08:06:47 51°12.897 2°50.601 211.3 3.7 227 8.8
2010-11-08 08:06:51 51°12.895 2°50.596 211.8 3.7 227 8.7
2010-11-08 08:06:57 51°12.89 2°50.59 212.3 3.7 225 8.8
2010-11-08 08:07:02 51°12.887 2°50.583 212.7 3.7 227 8.8
2010-11-08 08:07:07 51°12.884 2°50.577 213.1 3.7 229 8.8
2010-11-08 08:07:12 51°12.88 2°50.571 213.6 3.7 229 8.8
2010-11-08 08:07:17 51°12.877 2°50.565 214 3.7 230 8.7
2010-11-08 08:07:22 51°12.873 2°50.559 214.4 3.7 227 8.8
2010-11-08 08:07:27 51°12.87 2°50.553 215.1 3.7 228 8.8
2010-11-08 08:07:31 51°12.867 2°50.548 215.6 3.7 229 8.7
2010-11-08 08:07:37 51°12.863 2°50.54 215.9 3.7 230 8.8
2010-11-08 08:07:42 51°12.86 2°50.534 216.5 3.7 230 8.7
2010-11-08 08:07:47 51°12.857 2°50.527 217 3.7 230 8.7
2010-11-08 08:07:51 51°12.854 2°50.522 217.2 3.7 229 8.6
2010-11-08 08:07:57 51°12.85 2°50.515 217.3 3.7 230 8.6
2010-11-08 08:08:02 51°12.847 2°50.509 217.6 3.7 228 8.6
2010-11-08 08:08:07 51°12.843 2°50.502 217.6 3.7 230 8.7
2010-11-08 08:08:11 51°12.841 2°50.497 217.6 3.6 229 8.6
2010-11-08 08:08:17 51°12.837 2°50.49 217.6 3.6 230 8.7
2010-11-08 08:08:22 51°12.834 2°50.484 217.7 3.7 231 8.5
2010-11-08 08:08:27 51°12.831 2°50.477 217.9 3.7 231 8.6
2010-11-08 08:08:32 51°12.828 2°50.471 218.1 3.6 230 8.6
2010-11-08 08:08:37 51°12.825 2°50.465 218.5 3.6 231 8.7
2010-11-08 08:08:42 51°12.822 2°50.458 218.6 3.6 233 8.6
2010-11-08 08:08:47 51°12.818 2°50.453 218.6 3.6 229 8.7
2010-11-08 08:08:51 51°12.816 2°50.447 218.8 3.6 232 8.5
2010-11-08 08:08:57 51°12.813 2°50.44 218.8 3.6 231 8.6
2010-11-08 08:09:02 51°12.81 2°50.434 218.8 3.6 230 8.6
2010-11-08 08:09:07 51°12.807 2°50.428 218.9 3.6 232 8.6
2010-11-08 08:09:11 51°12.804 2°50.423 218.8 3.6 233 8.7
2010-11-08 08:09:17 51°12.801 2°50.415 218.8 3.5 234 8.5
2010-11-08 08:09:22 51°12.798 2°50.409 218.3 3.6 232 8.6
2010-11-08 08:09:27 51°12.795 2°50.403 218.2 3.5 232 8.5
2010-11-08 08:09:32 51°12.791 2°50.397 217.8 3.6 231 8.6
2010-11-08 08:09:37 51°12.788 2°50.391 217.4 3.5 229 8.6
2010-11-08 08:09:42 51°12.785 2°50.385 217.3 3.6 230 8.6
2010-11-08 08:09:47 51°12.781 2°50.379 217.1 3.6 228 8.6
2010-11-08 08:09:51 51°12.779 2°50.374 217 3.6 231 8.5
2010-11-08 08:09:57 51°12.775 2°50.367 217 3.6 230 8.7
2010-11-08 08:10:02 51°12.772 2°50.361 217 3.5 229 8.5
2010-11-08 08:10:07 51°12.769 2°50.355 217 3.6 230 8.6
2010-11-08 08:10:11 51°12.766 2°50.351 217 3.6 228 8.5
2010-11-08 08:10:17 51°12.762 2°50.343 217 3.5 230 8.6
2010-11-08 08:10:22 51°12.759 2°50.337 217 3.5 230 8.6
2010-11-08 08:10:27 51°12.756 2°50.331 216.9 3.5 232 8.4
2010-11-08 08:10:31 51°12.754 2°50.326 216.6 3.5 229 8.4
2010-11-08 08:10:37 51°12.75 2°50.319 216.6 3.5 229 8.3
2010-11-08 08:10:42 51°12.747 2°50.313 216.5 3.5 233 8.4
2010-11-08 08:10:47 51°12.744 2°50.306 216.3 3.6 232 8.3
2010-11-08 08:10:51 51°12.741 2°50.302 216.4 3.5 230 8.4
2010-11-08 08:10:57 51°12.737 2°50.295 216.4 3.5 230 8.4
2010-11-08 08:11:02 51°12.734 2°50.289 216.3 3.5 230 8.4
2010-11-08 08:11:07 51°12.731 2°50.283 216.3 3.5 228 8.6
2010-11-08 08:11:12 51°12.728 2°50.278 215.9 3.5 227 8.5
2010-11-08 08:11:17 51°12.725 2°50.272 215.9 3.5 232 8.5
2010-11-08 08:11:22 51°12.722 2°50.266 215.8 3.5 230 8.4
2010-11-08 08:11:27 51°12.719 2°50.26 215.7 3.5 230 8.3
2010-11-08 08:11:31 51°12.717 2°50.255 215.5 3.4 232 8.4
2010-11-08 08:11:37 51°12.713 2°50.249 215.5 3.4 229 8.4
2010-11-08 08:11:42 51°12.71 2°50.243 215.5 3.5 231 8.5
2010-11-08 08:11:47 51°12.707 2°50.237 215.5 3.4 229 8.5
2010-11-08 08:11:51 51°12.704 2°50.233 215.5 3.4 229 8.3
2010-11-08 08:11:57 51°12.701 2°50.226 215.5 3.4 228 8.3
2010-11-08 08:12:02 51°12.697 2°50.22 215.4 3.5 229 8.2
2010-11-08 08:12:07 51°12.694 2°50.214 215.3 3.4 227 8.2
2010-11-08 08:12:12 51°12.691 2°50.208 215.3 3.5 232 8.2
2010-11-08 08:12:17 51°12.688 2°50.202 215.7 3.4 231 8.2
2010-11-08 08:12:22 51°12.685 2°50.196 216.1 3.5 231 8.4
2010-11-08 08:12:27 51°12.682 2°50.191 216.6 3.5 229 8.2
2010-11-08 08:12:31 51°12.68 2°50.186 217.3 3.5 233 8.1
2010-11-08 08:12:37 51°12.676 2°50.179 217.8 3.5 231 8.4
2010-11-08 08:12:42 51°12.673 2°50.172 218.6 3.5 232 8.2
2010-11-08 08:12:47 51°12.67 2°50.166 218.9 3.5 234 8.3
2010-11-08 08:12:51 51°12.667 2°50.162 219.2 3.5 230 8.2
2010-11-08 08:12:57 51°12.663 2°50.154 219.8 3.5 233 6
2010-11-08 08:13:02 51°12.66 2°50.148 220 3.5 232 8.3
2010-11-08 08:13:07 51°12.657 2°50.142 220.2 3.6 233 8.1
2010-11-08 08:13:11 51°12.655 2°50.137 220.4 3.5 234 8.3
2010-11-08 08:13:17 51°12.651 2°50.13 220.7 3.5 232 8.3
2010-11-08 08:13:22 51°12.648 2°50.124 221.5 3.6 229 8.2
2010-11-08 08:13:27 51°12.645 2°50.117 222.2 3.6 232 8.3
2010-11-08 08:13:32 51°12.642 2°50.111 223.2 3.6 233 8.2
2010-11-08 08:13:37 51°12.64 2°50.104 223.6 3.5 236 8.3
2010-11-08 08:13:42 51°12.637 2°50.098 224.4 3.5 234 8.4
2010-11-08 08:13:47 51°12.634 2°50.091 224.8 3.6 236 8.3
2010-11-08 08:13:51 51°12.632 2°50.086 225.4 3.5 236 8.3
2010-11-08 08:13:57 51°12.629 2°50.078 225.9 3.6 237 8.2
2010-11-08 08:14:02 51°12.626 2°50.072 226.3 3.6 236 8.1
2010-11-08 08:14:07 51°12.623 2°50.065 226.8 3.6 235 8.1
2010-11-08 08:14:11 51°12.621 2°50.06 227 3.6 236 8.3
2010-11-08 08:14:17 51°12.618 2°50.051 227.3 3.6 236 8.4
2010-11-08 08:14:22 51°12.615 2°50.045 227.5 3.6 238 -999
2010-11-08 08:14:27 51°12.612 2°50.038 227.6 3.6 237 8.2
2010-11-08 08:14:32 51°12.61 2°50.032 228 3.5 238 8.1
2010-11-08 08:14:37 51°12.607 2°50.025 228 3.6 237 8.4
2010-11-08 08:14:42 51°12.605 2°50.018 228.3 3.5 238 8.2
2010-11-08 08:14:47 51°12.602 2°50.012 228.7 3.6 237 8.3
2010-11-08 08:14:51 51°12.6 2°50.006 229 3.6 240 8.2
2010-11-08 08:14:57 51°12.597 2°49.998 229.3 3.5 239 8.2
2010-11-08 08:15:02 51°12.594 2°49.992 229.4 3.5 238 8.2
2010-11-08 08:15:07 51°12.591 2°49.985 229.4 3.5 237 8.3
2010-11-08 08:15:12 51°12.589 2°49.979 229.7 3.5 237 8.2
2010-11-08 08:15:17 51°12.587 2°49.972 229.7 3.6 241 8.2
2010-11-08 08:15:22 51°12.584 2°49.965 229.9 3.5 238 8.3
2010-11-08 08:15:27 51°12.581 2°49.959 230.2 3.5 238 8.2
2010-11-08 08:15:31 51°12.579 2°49.953 230.3 3.5 239 8.2
2010-11-08 08:15:37 51°12.576 2°49.945 230.6 3.5 238 8.1
2010-11-08 08:15:42 51°12.573 2°49.939 230.6 3.5 237 8.2
2010-11-08 08:15:47 51°12.571 2°49.932 230.7 3.5 240 6
2010-11-08 08:15:51 51°12.57 2°49.926 230.7 3.6 245 8.2
2010-11-08 08:15:57 51°12.567 2°49.918 230.6 3.6 242 8.3
2010-11-08 08:16:02 51°12.563 2°49.912 230.7 3.5 235 8.2
2010-11-08 08:16:07 51°12.561 2°49.905 230.8 3.5 234 8.1
2010-11-08 08:16:12 51°12.558 2°49.899 230.9 3.5 235 8.2
2010-11-08 08:16:17 51°12.556 2°49.891 230.9 3.6 241 6
2010-11-08 08:16:22 51°12.554 2°49.884 231 3.5 241 6.1
2010-11-08 08:16:27 51°12.551 2°49.878 231.1 3.6 241 8.2
2010-11-08 08:16:31 51°12.549 2°49.872 231.2 3.5 237 8.3
2010-11-08 08:16:37 51°12.546 2°49.864 231.3 3.5 236 8.4
2010-11-08 08:16:42 51°12.544 2°49.857 231 3.6 241 6
2010-11-08 08:16:47 51°12.541 2°49.85 230.9 3.5 242 8.1
2010-11-08 08:16:52 51°12.539 2°49.844 230.9 3.6 243 8.4
2010-11-08 08:16:57 51°12.536 2°49.837 230.7 3.5 238 6
2010-11-08 08:17:02 51°12.534 2°49.83 230.8 3.6 241 6
2010-11-08 08:17:07 51°12.531 2°49.824 230.8 3.6 240 8.2
2010-11-08 08:17:11 51°12.529 2°49.818 230.8 3.6 239 8.2
2010-11-08 08:17:17 51°12.526 2°49.81 230.6 3.6 240 8.1
2010-11-08 08:17:22 51°12.524 2°49.803 230.5 3.6 239 8.2
2010-11-08 08:17:27 51°12.521 2°49.797 230.6 3.6 239 8.2
2010-11-08 08:17:31 51°12.519 2°49.791 230.8 3.6 240 8.1
2010-11-08 08:17:37 51°12.516 2°49.783 231 3.7 243 8.2
2010-11-08 08:17:42 51°12.513 2°49.776 231.1 3.6 242 8.1
2010-11-08 08:17:47 51°12.511 2°49.769 231.2 3.6 243 8.2
2010-11-08 08:17:51 51°12.509 2°49.764 231.2 3.6 239 8.1
2010-11-08 08:17:57 51°12.505 2°49.756 231.3 3.6 240 8.1
2010-11-08 08:18:02 51°12.504 2°49.749 231.2 3.6 242 8.2
2010-11-08 08:18:07 51°12.501 2°49.742 231.2 3.5 239 8.1
2010-11-08 08:18:11 51°12.499 2°49.737 231 3.5 237 8.1
2010-11-08 08:18:17 51°12.496 2°49.728 230.8 3.6 240 8.1
2010-11-08 08:18:22 51°12.494 2°49.722 230.5 3.5 239 8.2
2010-11-08 08:18:27 51°12.491 2°49.715 230.2 3.6 239 6
2010-11-08 08:18:32 51°12.489 2°49.707 230.2 3.6 242 8.1
2010-11-08 08:18:37 51°12.486 2°49.701 229.9 3.6 239 8.1
2010-11-08 08:18:42 51°12.483 2°49.695 230 3.6 238 8.2
2010-11-08 08:18:47 51°12.481 2°49.688 230 3.6 238 8.1
2010-11-08 08:18:51 51°12.479 2°49.682 229.8 3.6 240 8.1
2010-11-08 08:18:57 51°12.476 2°49.674 229.8 3.6 239 8.2
2010-11-08 08:19:02 51°12.473 2°49.667 229.5 3.6 242 8.2
2010-11-08 08:19:07 51°12.47 2°49.661 229.6 3.6 242 6
2010-11-08 08:19:12 51°12.467 2°49.654 229.6 3.6 240 8.1
2010-11-08 08:19:17 51°12.465 2°49.648 229.6 3.6 240 8
2010-11-08 08:19:22 51°12.462 2°49.641 229.6 3.6 242 8.2
2010-11-08 08:19:27 51°12.46 2°49.634 229.6 3.6 239 8.1
2010-11-08 08:19:31 51°12.457 2°49.629 229.6 3.6 236 8.1
2010-11-08 08:19:37 51°12.454 2°49.621 229.8 3.6 236 6
2010-11-08 08:19:42 51°12.452 2°49.613 229.6 3.7 242 6
2010-11-08 08:19:47 51°12.449 2°49.607 229.6 3.6 239 8.1
2010-11-08 08:19:52 51°12.446 2°49.6 229.6 3.6 239 8.2
2010-11-08 08:19:57 51°12.444 2°49.593 229.7 3.6 239 8.1
2010-11-08 08:20:02 51°12.442 2°49.586 229.7 3.6 243 8.1
2010-11-08 08:20:07 51°12.439 2°49.579 229.6 3.6 241 8.1
2010-11-08 08:20:11 51°12.437 2°49.574 229.6 3.6 240 6
2010-11-08 08:20:17 51°12.433 2°49.566 229.5 3.6 236 -999
2010-11-08 08:20:22 51°12.431 2°49.559 229.5 3.6 240 -999
2010-11-08 08:20:27 51°12.428 2°49.553 229.4 3.6 238 8.2
2010-11-08 08:20:31 51°12.426 2°49.547 229.4 3.6 236 8.1
2010-11-08 08:20:37 51°12.423 2°49.539 229.5 3.6 241 8.2
2010-11-08 08:20:42 51°12.42 2°49.532 229.7 3.6 236 8.1
2010-11-08 08:20:47 51°12.418 2°49.525 229.8 3.6 239 8.2
2010-11-08 08:20:52 51°12.416 2°49.518 229.7 3.6 242 8.2
2010-11-08 08:20:57 51°12.413 2°49.512 229.7 3.5 239 6
2010-11-08 08:21:02 51°12.41 2°49.505 229.7 3.6 237 8.1
2010-11-08 08:21:07 51°12.407 2°49.499 229.7 3.6 236 8.1
2010-11-08 08:21:11 51°12.405 2°49.493 229.7 3.6 238 8.2
2010-11-08 08:21:17 51°12.403 2°49.485 229.5 3.6 239 8.3
2010-11-08 08:21:22 51°12.4 2°49.478 229.7 3.6 239 8.1
2010-11-08 08:21:27 51°12.398 2°49.471 229.7 3.6 239 8.1
2010-11-08 08:21:32 51°12.395 2°49.464 230.2 3.6 239 8.2
2010-11-08 08:21:37 51°12.393 2°49.458 230.1 3.6 238 8.2
2010-11-08 08:21:42 51°12.39 2°49.451 230.2 3.6 241 6.1
2010-11-08 08:21:47 51°12.387 2°49.444 230.2 3.6 239 6
2010-11-08 08:21:51 51°12.385 2°49.439 230.2 3.6 239 8.2
2010-11-08 08:21:57 51°12.382 2°49.43 230.1 3.6 237 8.2
2010-11-08 08:22:02 51°12.38 2°49.424 229.9 3.6 238 8.1
2010-11-08 08:22:07 51°12.377 2°49.417 229.8 3.6 239 8.2
2010-11-08 08:22:12 51°12.374 2°49.41 229.6 3.6 240 8.1
2010-11-08 08:22:17 51°12.372 2°49.404 229.4 3.6 237 8.2
2010-11-08 08:22:22 51°12.369 2°49.397 229.4 3.6 240 6
2010-11-08 08:22:27 51°12.366 2°49.39 229.2 3.6 238 6.1
2010-11-08 08:22:31 51°12.365 2°49.384 229 3.6 240 8.2
2010-11-08 08:22:37 51°12.361 2°49.376 229 3.6 239 8.2
2010-11-08 08:22:42 51°12.359 2°49.369 229 3.6 240 8.2
2010-11-08 08:22:47 51°12.357 2°49.363 229.1 3.6 238 8.2
2010-11-08 08:22:52 51°12.354 2°49.356 229.4 3.6 241 8.1
2010-11-08 08:22:57 51°12.351 2°49.349 229.5 3.6 237 8.2
2010-11-08 08:23:02 51°12.349 2°49.342 229.7 3.6 240 8.2
2010-11-08 08:23:07 51°12.346 2°49.336 229.8 3.5 237 6
2010-11-08 08:23:11 51°12.344 2°49.33 229.9 3.5 239 8.2
2010-11-08 08:23:17 51°12.341 2°49.322 230 3.6 240 8.2
2010-11-08 08:23:22 51°12.339 2°49.315 229.9 3.6 241 8.2
2010-11-08 08:23:27 51°12.336 2°49.308 229.8 3.6 239 8.2
2010-11-08 08:23:32 51°12.334 2°49.301 229.7 3.6 239 8.1
2010-11-08 08:23:37 51°12.331 2°49.295 229.7 3.5 238 8.2
2010-11-08 08:23:42 51°12.329 2°49.288 229.7 3.6 238 8.2
2010-11-08 08:23:47 51°12.326 2°49.281 229.7 3.5 239 8.1
2010-11-08 08:23:51 51°12.324 2°49.276 229.7 3.6 240 8.2
2010-11-08 08:23:57 51°12.321 2°49.267 229.6 3.6 241 6
2010-11-08 08:24:02 51°12.319 2°49.26 229.6 3.6 242 8.1
2010-11-08 08:24:07 51°12.316 2°49.254 229.6 3.6 242 8.2
2010-11-08 08:24:11 51°12.313 2°49.249 229.9 3.5 239 8.2
2010-11-08 08:24:17 51°12.311 2°49.24 230 3.5 240 8.2
2010-11-08 08:24:22 51°12.308 2°49.234 230 3.5 239 8.2
2010-11-08 08:24:27 51°12.305 2°49.227 230 3.5 238 8.2
2010-11-08 08:24:31 51°12.303 2°49.222 229.9 3.5 238 8.1
2010-11-08 08:24:37 51°12.3 2°49.214 229.9 3.5 239 8.2
2010-11-08 08:24:42 51°12.297 2°49.207 229.9 3.5 238 8.2
2010-11-08 08:24:47 51°12.295 2°49.2 229.8 3.6 238 6
2010-11-08 08:24:52 51°12.292 2°49.194 229.7 3.5 239 8.2
2010-11-08 08:24:57 51°12.29 2°49.187 229.6 3.5 240 8.1
2010-11-08 08:25:02 51°12.287 2°49.18 229.4 3.5 240 8.2
2010-11-08 08:25:07 51°12.284 2°49.174 229.4 3.5 234 8.2
2010-11-08 08:25:11 51°12.283 2°49.168 229.5 3.5 242 8.2
2010-11-08 08:25:17 51°12.279 2°49.161 229.5 3.5 238 8.2
2010-11-08 08:25:22 51°12.277 2°49.154 229.8 3.5 241 8.2
2010-11-08 08:25:27 51°12.275 2°49.147 229.8 3.5 238 8.2
2010-11-08 08:25:31 51°12.273 2°49.141 229.7 3.6 241 8.1
2010-11-08 08:25:37 51°12.27 2°49.133 229.6 3.5 239 6.1
2010-11-08 08:25:42 51°12.267 2°49.127 229.4 3.5 238 6
2010-11-08 08:25:47 51°12.264 2°49.12 229.4 3.5 239 8.1
2010-11-08 08:25:51 51°12.263 2°49.115 229.4 3.5 239 8.2
2010-11-08 08:25:57 51°12.259 2°49.107 229.4 3.5 239 8.3
2010-11-08 08:26:02 51°12.257 2°49.1 229.3 3.6 240 8.2
2010-11-08 08:26:07 51°12.254 2°49.093 229.4 3.6 238 8.2
2010-11-08 08:26:11 51°12.252 2°49.088 229.3 3.5 237 8.1
2010-11-08 08:26:17 51°12.249 2°49.08 229.2 3.5 237 8.2
2010-11-08 08:26:22 51°12.247 2°49.073 228.9 3.6 239 8.2
2010-11-08 08:26:27 51°12.244 2°49.067 228.9 3.6 239 8.1
2010-11-08 08:26:31 51°12.242 2°49.062 228.9 3.6 238 6
2010-11-08 08:26:37 51°12.239 2°49.053 228.9 3.6 238 8.2
2010-11-08 08:26:42 51°12.236 2°49.047 229 3.5 237 8.2
2010-11-08 08:26:47 51°12.234 2°49.04 229.2 3.6 237 8.2
2010-11-08 08:26:51 51°12.231 2°49.035 229.2 3.6 240 8.1
2010-11-08 08:26:57 51°12.229 2°49.026 229.2 3.6 242 8.3
2010-11-08 08:27:02 51°12.226 2°49.019 229.1 3.6 244 8.1
2010-11-08 08:27:07 51°12.223 2°49.013 229 3.6 238 8.2
2010-11-08 08:27:12 51°12.22 2°49.006 229 3.6 239 6
2010-11-08 08:27:17 51°12.218 2°49 229 3.6 237 8.2
2010-11-08 08:27:22 51°12.215 2°48.993 229 3.6 237 8.1
2010-11-08 08:27:27 51°12.212 2°48.987 229 3.6 237 8.1
2010-11-08 08:27:31 51°12.211 2°48.981 228.9 3.6 240 8.1
2010-11-08 08:27:37 51°12.207 2°48.973 228.9 3.6 235 8.2
2010-11-08 08:27:42 51°12.204 2°48.966 228.9 3.6 235 8.2
2010-11-08 08:27:47 51°12.201 2°48.96 228.9 3.6 237 8.1
2010-11-08 08:27:51 51°12.199 2°48.954 228.7 3.6 235 8.2
2010-11-08 08:27:57 51°12.196 2°48.946 228.6 3.7 238 6
2010-11-08 08:28:02 51°12.194 2°48.939 228.6 3.7 242 8.1
2010-11-08 08:28:07 51°12.191 2°48.932 228.6 3.6 241 8.1
2010-11-08 08:28:11 51°12.189 2°48.927 228.7 3.6 239 8.1
2010-11-08 08:28:17 51°12.186 2°48.918 228.8 3.7 240 8.1
2010-11-08 08:28:22 51°12.183 2°48.912 229.2 3.7 242 8.1
2010-11-08 08:28:27 51°12.181 2°48.904 229.6 3.7 243 8.2
2010-11-08 08:28:32 51°12.177 2°48.898 229.9 3.7 239 8.1
2010-11-08 08:28:37 51°12.175 2°48.891 230.1 3.6 238 8.1
2010-11-08 08:28:42 51°12.172 2°48.884 230.2 3.6 240 6
2010-11-08 08:28:47 51°12.169 2°48.878 230.4 3.6 238 8.1
2010-11-08 08:28:51 51°12.167 2°48.872 230.9 3.6 238 8.1
2010-11-08 08:28:57 51°12.164 2°48.864 231.7 3.6 240 8.1
2010-11-08 08:29:02 51°12.162 2°48.857 232.8 3.6 240 8.1
2010-11-08 08:29:07 51°12.16 2°48.849 234.3 3.6 241 8.1
2010-11-08 08:29:12 51°12.158 2°48.842 236.4 3.6 247 8.2
2010-11-08 08:29:17 51°12.156 2°48.834 239.1 3.7 252 8.1
2010-11-08 08:29:22 51°12.154 2°48.827 242.1 3.5 251 8.1
2010-11-08 08:29:27 51°12.152 2°48.82 245.5 3.5 250 8.1
2010-11-08 08:29:31 51°12.152 2°48.814 248.9 3.5 257 8.2
2010-11-08 08:29:37 51°12.15 2°48.805 252.5 3.4 256 8.2
2010-11-08 08:29:42 51°12.149 2°48.798 255.6 3.4 259 8.2
2010-11-08 08:29:47 51°12.148 2°48.791 258.4 3.4 259 8.1
2010-11-08 08:29:52 51°12.148 2°48.783 260.5 3.5 263 8.2
2010-11-08 08:29:57 51°12.148 2°48.775 262.5 3.5 268 8.1
2010-11-08 08:30:02 51°12.147 2°48.768 263.6 3.4 264 8.2
2010-11-08 08:30:07 51°12.146 2°48.761 264.4 3.4 266 8.2
2010-11-08 08:30:11 51°12.146 2°48.755 265.2 3.4 266 8.3
2010-11-08 08:30:17 51°12.146 2°48.746 265.7 3.4 267 8.2
2010-11-08 08:30:22 51°12.145 2°48.738 266.5 3.4 266 8.3
2010-11-08 08:30:27 51°12.145 2°48.731 267.2 3.4 268 8.3
2010-11-08 08:30:31 51°12.145 2°48.725 268.6 3.3 268 8.3
2010-11-08 08:30:37 51°12.145 2°48.716 270.1 3.3 270 8.4
2010-11-08 08:30:42 51°12.145 2°48.709 272.3 3.3 272 8.4
2010-11-08 08:30:47 51°12.145 2°48.702 274.7 3.2 271 8.4
2010-11-08 08:30:52 51°12.146 2°48.695 277.2 3.3 274 8.4
2010-11-08 08:30:57 51°12.146 2°48.687 279.8 3.4 277 8.5
2010-11-08 08:31:02 51°12.146 2°48.681 282.5 3.3 278 8.5
2010-11-08 08:31:07 51°12.147 2°48.674 285.1 3.2 276 8.5
2010-11-08 08:31:11 51°12.148 2°48.668 287.1 3.3 281 8.5
2010-11-08 08:31:17 51°12.149 2°48.66 289 3.3 280 8.6
2010-11-08 08:31:22 51°12.149 2°48.654 290.5 3 279 8.6
2010-11-08 08:31:27 51°12.151 2°48.646 292.2 3.2 281 8.6